CA-0600 weather

CLOSED Rivère l'Acadie Water Aerodrome
Carignan, Quebec, Canada

Public forecast

Using degrees Celsius for public forecast. Weather courtesy of forecast.io.

METAR (pilot weather report)

Closest report is Montréal / Saint-Hubert Airport, 5.0 nm (9.4 km) WNW. Retrieved 2019/07/15 17:00 UTC (32 minutes ago):

CYHU 151700Z AUTO 24006KT 180V250 9SM BKN055 25/14 A3002 RMK SLP168 DENSITY ALT 1100FT

TAF (pilot weather forecast)

Closest forecast is Montréal / Saint-Hubert Airport, 5.0 nm (9.4 km) WNW. Retrieved 2019/07/15 12:42 UTC (5 hours ago):

TAF CYHU 151139Z 1512/1612 29005KT P6SM FEW040 FM151600 26010KT P6SM FEW050 BECMG 1522/1524 25005KT RMK FCST BASED ON AUTO OBS. NXT FCST BY 151800Z